Time;durP1;ratioP1;P1;durP2;ratioP2;P2;SDS_P1;SDS_P2;PMS_P1;PMS_P2;Temp;Humidity;BMP_temperature;BMP_pressure;BME280_temperature;BME280_humidity;BME280_pressure;Samples;Min_cycle;Max_cycle;Signal;HPM_P1;HPM_P2
2021/12/07 00:01:26;;;;;;;132.93;23.97;;;3.20;99.90;;;;;;5052982;28;20212;-63
2021/12/07 00:03:55;;;;;;;42.97;16.57;;;3.20;99.90;;;;;;5053115;28;20223;-63
2021/12/07 00:06:23;;;;;;;73.43;20.53;;;3.20;99.90;;;;;;5053250;28;20233;-63
2021/12/07 00:08:54;;;;;;;72.13;21.00;;;3.20;99.90;;;;;;5052952;28;20581;-61
2021/12/07 00:11:21;;;;;;;92.20;21.77;;;3.20;99.90;;;;;;5052801;28;20234;-60
2021/12/07 00:13:48;;;;;;;114.33;21.40;;;3.20;99.90;;;;;;5052836;28;20212;-62
2021/12/07 00:16:15;;;;;;;83.40;20.40;;;3.20;99.90;;;;;;5052288;28;20561;-62
2021/12/07 00:18:42;;;;;;;63.73;19.70;;;3.20;99.90;;;;;;5052462;28;20213;-61
2021/12/07 00:21:11;;;;;;;61.20;18.37;;;3.20;99.90;;;;;;5051847;28;20243;-62
2021/12/07 00:23:38;;;;;;;100.17;21.53;;;3.20;99.90;;;;;;5052556;28;20205;-61
2021/12/07 00:26:05;;;;;;;82.87;18.67;;;3.20;99.90;;;;;;5052593;28;20209;-62
2021/12/07 00:28:33;;;;;;;54.33;17.37;;;3.20;99.90;;;;;;5051934;28;20205;-63
2021/12/07 00:31:10;;;;;;;38.90;15.27;;;3.30;99.90;;;;;;5052601;28;20205;-62
2021/12/07 00:33:43;;;;;;;41.17;15.57;;;3.30;99.90;;;;;;5052376;28;20194;-63
2021/12/07 00:36:12;;;;;;;98.93;21.47;;;3.30;99.90;;;;;;5052047;28;20303;-60
2021/12/07 00:38:39;;;;;;;49.30;16.07;;;3.30;99.90;;;;;;5052286;28;20208;-61
2021/12/07 00:41:06;;;;;;;35.73;14.27;;;3.30;99.90;;;;;;5052357;28;20229;-61
2021/12/07 00:43:33;;;;;;;55.80;18.60;;;3.30;99.90;;;;;;5052262;28;20669;-61
2021/12/07 00:46:01;;;;;;;36.90;14.33;;;3.30;99.90;;;;;;5052594;28;20300;-62
2021/12/07 00:48:29;;;;;;;46.77;15.70;;;3.30;99.90;;;;;;5051860;28;20220;-63
2021/12/07 00:50:57;;;;;;;40.97;15.73;;;3.40;99.90;;;;;;5052335;28;20208;-61
2021/12/07 00:53:27;;;;;;;44.30;15.17;;;3.40;99.90;;;;;;5051949;28;20205;-61
2021/12/07 00:55:57;;;;;;;61.47;17.53;;;3.40;99.90;;;;;;5052199;28;20193;-61
2021/12/07 00:58:25;;;;;;;66.47;20.37;;;3.40;99.90;;;;;;5051434;28;20208;-61
2021/12/07 01:00:55;;;;;;;39.83;16.17;;;3.40;99.90;;;;;;5052235;28;20225;-61
2021/12/07 01:03:24;;;;;;;44.90;16.80;;;3.40;99.90;;;;;;5052001;28;20540;-62
2021/12/07 01:05:54;;;;;;;63.33;22.30;;;3.40;99.90;;;;;;5052172;28;20679;-62
2021/12/07 01:24:48;;;;;;;52.67;20.90;;;3.50;99.90;;;;;;5051600;28;20227;-61
2021/12/07 01:27:18;;;;;;;64.00;22.27;;;3.40;99.90;;;;;;5051926;28;20697;-60
2021/12/07 01:29:49;;;;;;;58.50;21.60;;;3.40;99.90;;;;;;5051550;28;20289;-61
2021/12/07 01:32:30;;;;;;;58.20;20.33;;;3.40;99.90;;;;;;5051340;28;20735;-61
2021/12/07 01:35:30;;;;;;;50.40;19.10;;;3.40;99.90;;;;;;5051502;28;20208;-62
2021/12/07 01:40:56;;;;;;;50.20;18.90;;;3.40;99.90;;;;;;5044072;28;20217;-61
2021/12/07 01:43:58;;;;;;;48.50;18.77;;;3.30;99.90;;;;;;5051296;28;20194;-60
2021/12/07 01:50:02;;;;;;;48.50;17.67;;;3.20;99.90;;;;;;4993543;28;20278;-60
2021/12/07 01:52:44;;;;;;;43.27;16.87;;;3.20;99.90;;;;;;4989556;28;20320;-61
2021/12/07 01:59:32;;;;;;;51.67;17.63;;;3.30;99.90;;;;;;5031554;28;20209;-62
2021/12/07 02:00:57;;;;;;;45.43;17.40;;;3.20;99.90;;;;;;5031288;28;20257;-61
2021/12/07 02:03:25;;;;;;;46.47;17.20;;;3.20;99.90;;;;;;5031208;28;20221;-61
2021/12/07 02:05:52;;;;;;;50.70;18.50;;;3.20;99.90;;;;;;5031637;28;20709;-62
2021/12/07 02:08:19;;;;;;;70.43;19.53;;;3.20;99.90;;;;;;5043369;28;20284;-61
2021/12/07 02:10:46;;;;;;;53.63;18.73;;;3.20;99.90;;;;;;5051417;28;20651;-62
2021/12/07 02:14:04;;;;;;;71.07;21.50;;;3.20;99.90;;;;;;5050843;28;20300;-61
2021/12/07 02:16:13;;;;;;;49.10;18.13;;;3.20;99.90;;;;;;5050748;28;20245;-62
2021/12/07 02:18:40;;;;;;;67.87;19.57;;;3.20;99.90;;;;;;5051259;28;20710;-61
2021/12/07 02:21:15;;;;;;;50.57;18.53;;;3.20;99.90;;;;;;5051016;28;20714;-62
2021/12/07 02:23:42;;;;;;;61.27;20.03;;;3.20;99.90;;;;;;5051012;28;20262;-61
2021/12/07 02:26:10;;;;;;;50.27;18.97;;;3.20;99.90;;;;;;5051227;28;20568;-61
2021/12/07 02:28:39;;;;;;;49.50;18.63;;;3.20;99.90;;;;;;5051041;28;20597;-62
2021/12/07 02:31:07;;;;;;;53.23;18.63;;;3.10;99.90;;;;;;5051351;28;20202;-62
2021/12/07 02:33:34;;;;;;;55.33;19.30;;;3.10;99.90;;;;;;5050995;28;20212;-61
2021/12/07 02:36:01;;;;;;;58.00;20.83;;;3.10;99.90;;;;;;5050837;28;20237;-61
2021/12/07 02:38:29;;;;;;;81.20;23.73;;;3.10;99.90;;;;;;5050803;28;20198;-61
2021/12/07 02:40:56;;;;;;;66.50;21.73;;;3.10;99.90;;;;;;5050828;28;20229;-61
2021/12/07 02:43:23;;;;;;;58.70;21.47;;;3.10;99.90;;;;;;5051169;28;20212;-60
2021/12/07 02:45:50;;;;;;;57.33;19.80;;;3.10;99.90;;;;;;5054889;28;20680;-62
2021/12/07 02:48:19;;;;;;;77.07;23.47;;;3.10;99.90;;;;;;5054595;28;20210;-62
2021/12/07 02:50:47;;;;;;;67.43;22.67;;;3.20;99.90;;;;;;5054713;28;20676;-61
2021/12/07 02:53:15;;;;;;;57.73;20.40;;;3.20;99.90;;;;;;5054539;28;20205;-61
2021/12/07 02:55:43;;;;;;;65.80;20.30;;;3.10;99.90;;;;;;5054619;28;20206;-62
2021/12/07 02:58:10;;;;;;;73.53;24.50;;;3.10;99.90;;;;;;5054506;28;20683;-61
2021/12/07 03:00:44;;;;;;;76.93;24.77;;;3.10;99.90;;;;;;5054492;28;20225;-61
2021/12/07 03:03:13;;;;;;;69.17;23.40;;;3.10;99.90;;;;;;5054399;28;20273;-62
2021/12/07 03:05:48;;;;;;;57.53;21.27;;;3.10;99.90;;;;;;5054559;28;20228;-60
2021/12/07 03:08:58;;;;;;;49.43;20.00;;;3.10;99.90;;;;;;5054300;28;20283;-62
2021/12/07 03:27:58;;;;;;;67.60;25.40;;;2.80;99.90;;;;;;5053389;28;20692;-62
2021/12/07 03:30:26;;;;;;;46.83;19.67;;;2.90;99.90;;;;;;5053683;28;20208;-61
2021/12/07 03:32:53;;;;;;;43.90;18.67;;;2.90;99.90;;;;;;5053673;28;20232;-61
2021/12/07 03:35:20;;;;;;;51.87;20.00;;;2.90;99.90;;;;;;5053432;28;20662;-64
2021/12/07 03:37:46;;;;;;;43.77;18.37;;;3.00;99.90;;;;;;5052753;28;20241;-60
2021/12/07 03:40:14;;;;;;;42.33;18.23;;;3.00;99.90;;;;;;5053581;28;20585;-62
2021/12/07 03:42:41;;;;;;;42.60;17.77;;;3.00;99.90;;;;;;5053871;28;20213;-62
2021/12/07 03:45:10;;;;;;;41.67;17.53;;;3.10;99.90;;;;;;5052904;28;20201;-62
2021/12/07 03:47:38;;;;;;;41.80;18.07;;;3.10;99.90;;;;;;5052559;28;20205;-62
2021/12/07 03:50:06;;;;;;;48.57;19.53;;;3.10;99.90;;;;;;5053423;28;20208;-61
2021/12/07 03:52:33;;;;;;;43.50;18.20;;;3.10;99.90;;;;;;5053413;28;20654;-62
2021/12/07 03:55:00;;;;;;;39.20;18.00;;;3.10;99.90;;;;;;5052836;28;20216;-61
2021/12/07 03:57:27;;;;;;;41.37;18.27;;;3.10;99.90;;;;;;5052795;28;20208;-60
2021/12/07 03:59:53;;;;;;;43.05;18.00;;;3.10;99.90;;;;;;5053039;28;20902;-61
2021/12/07 04:02:22;;;;;;;50.83;19.43;;;3.10;99.90;;;;;;5053279;28;20566;-62
2021/12/07 04:04:53;;;;;;;51.20;21.73;;;3.20;99.90;;;;;;5052987;28;20212;-61
2021/12/07 04:07:20;;;;;;;43.63;18.57;;;3.10;99.90;;;;;;5052750;28;20193;-61
2021/12/07 04:09:46;;;;;;;47.67;19.57;;;3.10;99.90;;;;;;5053102;28;20549;-61
2021/12/07 04:12:13;;;;;;;45.63;19.83;;;3.10;99.90;;;;;;5052593;28;20670;-61
2021/12/07 04:14:40;;;;;;;49.07;20.67;;;3.10;99.90;;;;;;5052519;28;20213;-62
2021/12/07 04:17:07;;;;;;;56.27;22.07;;;3.10;99.90;;;;;;5052144;28;20221;-63
2021/12/07 04:19:35;;;;;;;61.43;22.83;;;3.10;99.90;;;;;;5052958;28;20566;-62
2021/12/07 04:22:02;;;;;;;63.73;22.33;;;3.10;99.90;;;;;;5052198;28;20244;-62
2021/12/07 04:24:28;;;;;;;57.33;21.33;;;3.10;99.90;;;;;;5052745;28;20666;-62
2021/12/07 04:26:56;;;;;;;48.17;20.00;;;3.00;99.90;;;;;;5052315;28;20558;-62
2021/12/07 04:29:23;;;;;;;42.27;18.57;;;3.00;99.90;;;;;;5052350;28;20213;-63
2021/12/07 04:31:49;;;;;;;46.97;18.83;;;3.00;99.90;;;;;;5052434;28;20197;-62
2021/12/07 04:34:16;;;;;;;41.10;17.90;;;3.00;99.90;;;;;;5052356;28;20201;-62
2021/12/07 04:36:46;;;;;;;49.57;20.17;;;3.00;99.90;;;;;;5052229;28;20272;-63
2021/12/07 04:39:13;;;;;;;52.53;20.77;;;3.10;99.90;;;;;;5051890;28;20201;-61
2021/12/07 04:41:43;;;;;;;73.23;22.23;;;3.00;99.90;;;;;;5052241;28;20655;-62
2021/12/07 04:44:09;;;;;;;45.03;18.93;;;2.90;99.90;;;;;;5052037;28;20209;-61
2021/12/07 04:46:43;;;;;;;57.83;22.00;;;2.90;99.90;;;;;;5052626;28;20319;-61
2021/12/07 04:57:51;;;;;;;41.77;17.83;;;2.90;99.90;;;;;;5074154;28;20191;-62
2021/12/07 05:00:20;;;;;;;44.10;18.50;;;3.00;99.90;;;;;;5089597;28;20200;-62
2021/12/07 05:02:53;;;;;;;36.90;17.13;;;3.00;99.90;;;;;;5089304;28;20210;-62
2021/12/07 05:05:23;;;;;;;37.67;16.40;;;3.00;99.90;;;;;;5089279;28;20238;-63
2021/12/07 05:07:54;;;;;;;46.53;19.70;;;3.00;99.90;;;;;;5088681;28;20203;-62
2021/12/07 05:10:31;;;;;;;50.00;19.00;;;3.00;99.90;;;;;;5089043;28;20212;-62
2021/12/07 05:16:02;;;;;;;38.73;17.17;;;2.90;99.90;;;;;;5088613;28;20666;-62
2021/12/07 05:18:41;;;;;;;39.30;16.83;;;2.90;99.90;;;;;;5088924;28;20253;-62
2021/12/07 05:23:58;;;;;;;35.30;16.67;;;2.90;99.90;;;;;;5088527;28;20191;-62
2021/12/07 05:37:40;;;;;;;48.63;19.70;;;2.80;99.90;;;;;;5088467;28;20315;-62
2021/12/07 05:37:49;;;;;;;54.93;22.43;;;2.80;99.90;;;;;;5088268;28;20231;-62
2021/12/07 05:40:19;;;;;;;62.40;24.30;;;2.80;99.90;;;;;;5088481;28;20644;-63
2021/12/07 05:42:47;;;;;;;48.70;20.43;;;2.80;99.90;;;;;;5088331;28;20204;-63
2021/12/07 05:45:16;;;;;;;48.70;20.40;;;2.70;99.90;;;;;;5088012;28;20208;-61
2021/12/07 05:47:43;;;;;;;51.70;22.60;;;2.60;99.90;;;;;;5088186;28;20687;-62
2021/12/07 05:50:12;;;;;;;53.27;21.20;;;2.60;99.90;;;;;;5088062;28;20224;-62
2021/12/07 05:52:39;;;;;;;41.83;18.47;;;2.50;99.90;;;;;;5088184;28;20656;-63
2021/12/07 05:55:08;;;;;;;42.50;19.17;;;2.50;99.90;;;;;;5088238;28;20204;-62
2021/12/07 05:57:37;;;;;;;40.57;18.57;;;2.60;99.90;;;;;;5087898;28;20200;-62
2021/12/07 06:00:07;;;;;;;43.37;19.23;;;2.60;99.90;;;;;;5088079;28;20214;-61
2021/12/07 06:02:34;;;;;;;34.67;17.00;;;2.50;99.90;;;;;;5080761;28;20196;-63
2021/12/07 06:05:01;;;;;;;32.50;15.57;;;2.50;99.90;;;;;;5073934;28;20205;-63
2021/12/07 06:07:28;;;;;;;36.10;17.40;;;2.50;99.90;;;;;;5074286;28;20215;-63
2021/12/07 06:09:54;;;;;;;33.00;15.77;;;2.50;99.90;;;;;;5074251;28;20283;-63
2021/12/07 06:12:21;;;;;;;25.37;14.33;;;2.40;99.90;;;;;;5074122;28;20228;-62
2021/12/07 06:14:49;;;;;;;28.17;15.40;;;2.40;99.90;;;;;;5073998;28;20216;-62
2021/12/07 06:17:16;;;;;;;30.00;15.43;;;2.40;99.90;;;;;;5078888;28;20208;-62
2021/12/07 06:19:43;;;;;;;28.17;14.37;;;2.40;99.90;;;;;;5094470;28;20222;-63
2021/12/07 06:22:10;;;;;;;28.47;15.20;;;2.40;99.90;;;;;;5092789;28;20198;-62
2021/12/07 06:24:36;;;;;;;31.43;15.63;;;2.50;99.90;;;;;;5088195;28;20223;-62
2021/12/07 06:27:04;;;;;;;30.93;15.67;;;2.50;99.90;;;;;;5074362;28;20528;-62
2021/12/07 06:29:30;;;;;;;36.30;18.03;;;2.50;99.90;;;;;;5074290;28;20200;-63
2021/12/07 06:31:59;;;;;;;32.50;16.30;;;2.60;99.90;;;;;;5073867;28;20231;-61
2021/12/07 06:34:26;;;;;;;34.50;16.13;;;2.50;99.90;;;;;;5077547;28;20563;-64
2021/12/07 06:36:52;;;;;;;30.20;16.00;;;2.50;99.90;;;;;;5093490;28;20207;-62
2021/12/07 06:39:20;;;;;;;32.57;16.13;;;2.50;99.90;;;;;;5088951;28;20219;-63
2021/12/07 06:41:47;;;;;;;35.77;17.30;;;2.50;99.90;;;;;;5093944;28;20646;-61
2021/12/07 06:44:14;;;;;;;33.07;17.80;;;2.50;99.90;;;;;;5094121;28;20208;-62
2021/12/07 06:46:41;;;;;;;31.30;15.40;;;2.50;99.90;;;;;;5093674;28;20219;-62
2021/12/07 06:49:09;;;;;;;29.77;14.03;;;2.50;99.90;;;;;;5085387;28;20196;-63
2021/12/07 06:51:36;;;;;;;25.50;13.70;;;2.50;99.90;;;;;;5072870;28;20228;-64
2021/12/07 06:54:03;;;;;;;25.83;14.63;;;2.60;99.90;;;;;;5073742;28;20201;-63
2021/12/07 06:56:30;;;;;;;30.37;14.63;;;2.60;99.90;;;;;;5073738;28;20201;-62
2021/12/07 06:58:56;;;;;;;27.03;14.30;;;2.60;99.90;;;;;;5073575;28;20211;-62
2021/12/07 07:01:23;;;;;;;29.97;15.03;;;2.60;99.90;;;;;;5088961;28;20192;-62
2021/12/07 07:03:50;;;;;;;25.37;14.33;;;2.60;99.90;;;;;;5091889;28;20722;-63
2021/12/07 07:06:19;;;;;;;28.00;14.80;;;2.50;99.90;;;;;;5093598;28;20512;-62
2021/12/07 07:08:46;;;;;;;31.30;16.47;;;2.50;99.90;;;;;;5093251;28;20245;-62
2021/12/07 07:11:13;;;;;;;31.90;16.80;;;2.60;99.90;;;;;;5079460;28;20588;-62
2021/12/07 07:13:40;;;;;;;30.50;16.73;;;2.50;99.90;;;;;;5072442;28;20201;-62
2021/12/07 07:16:07;;;;;;;32.47;17.50;;;2.50;99.90;;;;;;5072833;28;20219;-62
2021/12/07 07:18:35;;;;;;;29.27;16.13;;;2.40;99.90;;;;;;5073479;28;20222;-63
2021/12/07 07:21:02;;;;;;;29.47;16.30;;;2.40;99.90;;;;;;5083832;28;20200;-63
2021/12/07 07:23:31;;;;;;;27.07;15.53;;;2.50;99.90;;;;;;5093271;28;20321;-63
2021/12/07 07:25:58;;;;;;;30.10;16.17;;;2.40;99.90;;;;;;5093296;28;20644;-62
2021/12/07 07:28:24;;;;;;;27.10;14.73;;;2.40;99.90;;;;;;5093305;28;20204;-62
2021/12/07 07:30:52;;;;;;;26.17;14.60;;;2.40;99.90;;;;;;5083455;28;20196;-63
2021/12/07 07:33:19;;;;;;;24.30;14.40;;;2.40;99.90;;;;;;5078487;28;20219;-63
2021/12/07 07:35:46;;;;;;;27.77;15.97;;;2.40;99.90;;;;;;5092947;28;20212;-64
2021/12/07 07:38:13;;;;;;;23.60;13.93;;;2.40;99.90;;;;;;5093184;28;20645;-63
2021/12/07 07:40:45;;;;;;;27.40;15.80;;;2.30;99.90;;;;;;5085774;28;20212;-64
2021/12/07 07:43:13;;;;;;;29.57;16.97;;;2.30;99.90;;;;;;5071982;28;20211;-63
2021/12/07 07:45:40;;;;;;;25.93;14.63;;;2.30;99.90;;;;;;5083014;28;20724;-62
2021/12/07 07:48:07;;;;;;;24.67;14.00;;;2.30;99.90;;;;;;5092467;28;20200;-63
2021/12/07 07:50:34;;;;;;;21.73;12.00;;;2.30;99.90;;;;;;5079653;28;20599;-65
2021/12/07 07:53:00;;;;;;;20.67;11.63;;;2.30;99.90;;;;;;5072477;28;20512;-63
2021/12/07 07:55:27;;;;;;;17.67;10.57;;;2.30;99.90;;;;;;5072370;28;20221;-66
2021/12/07 07:57:55;;;;;;;17.20;10.37;;;2.30;99.90;;;;;;5072246;28;20228;-63
2021/12/07 08:00:23;;;;;;;17.33;9.63;;;2.30;99.90;;;;;;5081570;28;20204;-64
2021/12/07 08:02:50;;;;;;;14.80;8.90;;;2.30;99.90;;;;;;5092457;28;20204;-66
2021/12/07 08:05:17;;;;;;;14.97;8.70;;;2.30;99.90;;;;;;5092800;28;20210;-64
2021/12/07 08:07:47;;;;;;;14.83;9.07;;;2.30;99.90;;;;;;5092215;28;20207;-64
2021/12/07 08:10:15;;;;;;;17.57;10.20;;;2.30;99.90;;;;;;5084214;28;20660;-63
2021/12/07 08:12:42;;;;;;;16.03;10.03;;;2.30;99.90;;;;;;5072101;28;20228;-64
2021/12/07 08:15:11;;;;;;;15.63;9.50;;;2.30;99.90;;;;;;5072438;28;20211;-66
2021/12/07 08:17:38;;;;;;;16.10;10.13;;;2.30;99.90;;;;;;5071949;28;20204;-64
2021/12/07 08:20:06;;;;;;;16.60;9.83;;;2.30;99.90;;;;;;5078138;28;20196;-64
2021/12/07 08:22:32;;;;;;;16.83;9.73;;;2.20;99.90;;;;;;5082382;28;20192;-65
2021/12/07 08:24:59;;;;;;;19.43;10.97;;;2.20;99.90;;;;;;5072018;28;20798;-63
2021/12/07 08:27:26;;;;;;;17.93;10.17;;;2.20;99.90;;;;;;5078305;28;20567;-63
2021/12/07 08:29:54;;;;;;;18.97;10.13;;;2.20;99.90;;;;;;5092049;28;20215;-63
2021/12/07 08:32:22;;;;;;;19.30;10.57;;;2.20;99.90;;;;;;5084579;28;20315;-62
2021/12/07 08:34:49;;;;;;;18.77;10.77;;;2.20;99.90;;;;;;5071814;28;20205;-63
2021/12/07 08:37:16;;;;;;;17.90;10.43;;;2.30;99.90;;;;;;5071834;28;20215;-64
2021/12/07 08:39:43;;;;;;;16.73;10.53;;;2.30;99.90;;;;;;5071966;28;20200;-62
2021/12/07 08:42:10;;;;;;;16.50;10.47;;;2.30;99.90;;;;;;5075227;28;20219;-63
2021/12/07 08:44:37;;;;;;;19.50;11.63;;;2.30;99.90;;;;;;5091890;28;20535;-64
2021/12/07 08:47:05;;;;;;;20.63;12.00;;;2.30;99.90;;;;;;5092174;28;20200;-63
2021/12/07 08:49:33;;;;;;;19.77;11.73;;;2.30;99.90;;;;;;5091794;28;20210;-64
2021/12/07 08:52:01;;;;;;;18.47;10.90;;;2.30;99.90;;;;;;5091459;28;20239;-63
2021/12/07 08:54:36;;;;;;;18.97;10.30;;;2.30;99.90;;;;;;5091716;28;20568;-62
2021/12/07 08:59:49;;;;;;;15.63;10.07;;;2.30;99.90;;;;;;5087551;28;20277;-63
2021/12/07 09:02:18;;;;;;;15.03;9.57;;;2.30;99.90;;;;;;5091511;28;20248;-62
2021/12/07 09:04:47;;;;;;;17.57;10.33;;;2.40;99.90;;;;;;5092118;28;20203;-63
2021/12/07 09:07:15;;;;;;;17.53;9.53;;;2.40;99.90;;;;;;5091151;28;20204;-65
2021/12/07 09:09:43;;;;;;;15.87;9.93;;;2.40;99.90;;;;;;5057510;28;20649;-66
2021/12/07 09:12:12;;;;;;;19.97;10.03;;;2.40;99.90;;;;;;5068553;28;20215;-64
2021/12/07 09:14:41;;;;;;;15.93;10.30;;;2.40;99.90;;;;;;5077102;28;20550;-63
2021/12/07 09:17:08;;;;;;;20.87;11.40;;;2.40;99.90;;;;;;5071295;28;20209;-65
2021/12/07 09:19:35;;;;;;;17.80;10.30;;;2.40;99.90;;;;;;5071385;28;20197;-64
2021/12/07 09:22:04;;;;;;;17.43;9.97;;;2.40;99.90;;;;;;5071682;28;20208;-65
2021/12/07 09:24:31;;;;;;;17.17;10.07;;;2.40;99.90;;;;;;5071417;28;20205;-65
2021/12/07 09:26:59;;;;;;;14.77;8.80;;;2.40;99.90;;;;;;5071466;28;20200;-63
2021/12/07 09:29:26;;;;;;;16.73;9.40;;;2.40;99.90;;;;;;5071174;28;20286;-64
2021/12/07 09:31:53;;;;;;;18.33;10.17;;;2.40;99.90;;;;;;5071435;28;20228;-64
2021/12/07 09:34:20;;;;;;;18.17;10.73;;;2.30;99.90;;;;;;5071326;28;20330;-64
2021/12/07 09:36:47;;;;;;;17.80;11.00;;;2.30;99.90;;;;;;5071640;28;20550;-66
2021/12/07 09:39:18;;;;;;;17.60;10.37;;;2.30;99.90;;;;;;5074717;28;20205;-65
2021/12/07 09:41:46;;;;;;;16.93;10.80;;;2.30;99.90;;;;;;5075142;28;20196;-64
2021/12/07 09:44:13;;;;;;;13.57;8.60;;;2.30;99.90;;;;;;5075883;28;20197;-64
2021/12/07 09:46:41;;;;;;;16.53;9.43;;;2.30;99.90;;;;;;5078553;28;20204;-63
2021/12/07 09:49:10;;;;;;;14.20;9.30;;;2.30;99.90;;;;;;5065981;28;20201;-63
2021/12/07 09:51:37;;;;;;;15.23;9.03;;;2.30;99.90;;;;;;5074419;28;20244;-63
2021/12/07 09:54:08;;;;;;;17.03;10.93;;;2.30;99.90;;;;;;5074733;28;20675;-63
2021/12/07 09:56:36;;;;;;;18.30;10.53;;;2.30;99.90;;;;;;5074774;28;20193;-63
2021/12/07 09:59:07;;;;;;;19.47;11.03;;;2.40;99.90;;;;;;5074488;28;20208;-63
2021/12/07 10:01:34;;;;;;;20.77;11.87;;;2.40;99.90;;;;;;5074966;28;20275;-63
2021/12/07 10:04:01;;;;;;;20.80;12.00;;;2.40;99.90;;;;;;5074753;28;20720;-64
2021/12/07 10:06:28;;;;;;;18.93;10.70;;;2.40;99.90;;;;;;5074674;28;20211;-65
2021/12/07 10:08:55;;;;;;;19.33;10.50;;;2.40;99.90;;;;;;5074842;28;20216;-62
2021/12/07 10:11:22;;;;;;;18.57;10.27;;;2.40;99.90;;;;;;5074614;28;20201;-64
2021/12/07 10:13:51;;;;;;;18.67;10.07;;;2.30;99.90;;;;;;5074615;28;20663;-64
2021/12/07 10:16:20;;;;;;;15.23;9.30;;;2.30;99.90;;;;;;5074250;28;20203;-62
2021/12/07 10:18:47;;;;;;;15.40;9.13;;;2.30;99.90;;;;;;5074364;28;20667;-65
2021/12/07 10:21:16;;;;;;;17.67;9.20;;;2.20;99.90;;;;;;5074190;28;20291;-62
2021/12/07 10:23:46;;;;;;;15.27;8.80;;;2.20;99.90;;;;;;5074199;28;20295;-61
2021/12/07 10:26:16;;;;;;;14.17;9.03;;;2.20;99.90;;;;;;5074298;28;20272;-62
2021/12/07 10:28:45;;;;;;;14.33;8.33;;;2.20;99.90;;;;;;5073675;28;20208;-63
2021/12/07 10:31:25;;;;;;;12.67;7.67;;;2.20;99.90;;;;;;5073981;28;20669;-63
2021/12/07 10:33:54;;;;;;;11.50;7.50;;;2.10;99.90;;;;;;5073786;28;20673;-63
2021/12/07 10:36:25;;;;;;;10.00;7.90;;;2.10;99.90;;;;;;5073892;28;20208;-63
2021/12/07 10:38:57;;;;;;;12.27;7.83;;;2.10;99.90;;;;;;5074485;28;20193;-63
2021/12/07 10:41:25;;;;;;;11.33;7.00;;;2.10;99.90;;;;;;5073959;28;20618;-64
2021/12/07 10:43:56;;;;;;;9.10;6.97;;;2.10;99.90;;;;;;5074068;28;20258;-63
2021/12/07 10:46:43;;;;;;;11.27;7.33;;;2.10;99.90;;;;;;5067488;28;20684;-62
2021/12/07 10:49:19;;;;;;;14.93;7.83;;;2.10;99.90;;;;;;5073524;28;20200;-63
2021/12/07 10:52:17;;;;;;;11.97;7.23;;;2.10;99.90;;;;;;5069197;28;20318;-63
2021/12/07 10:54:48;;;;;;;14.17;8.33;;;2.00;99.90;;;;;;5073435;28;20657;-63
2021/12/07 10:57:18;;;;;;;11.27;7.20;;;2.00;99.90;;;;;;5072565;28;20201;-63
2021/12/07 10:59:57;;;;;;;11.43;7.77;;;2.00;99.90;;;;;;5073697;28;20215;-63
2021/12/07 11:02:27;;;;;;;11.03;6.57;;;2.00;99.90;;;;;;5073628;28;20188;-63
2021/12/07 11:04:54;;;;;;;11.50;7.43;;;2.00;99.90;;;;;;5073208;28;20189;-63
2021/12/07 11:07:23;;;;;;;10.93;7.30;;;2.00;99.90;;;;;;5072599;28;20679;-63
2021/12/07 11:10:08;;;;;;;12.80;7.80;;;2.00;99.90;;;;;;5073085;28;20288;-63
2021/12/07 11:12:44;;;;;;;10.77;7.33;;;1.90;99.90;;;;;;5072924;28;20240;-63
2021/12/07 11:15:16;;;;;;;10.17;7.20;;;1.90;99.90;;;;;;5072433;28;20204;-64
2021/12/07 11:17:45;;;;;;;11.07;7.07;;;1.90;99.90;;;;;;5073017;28;20225;-63
2021/12/07 11:20:13;;;;;;;13.33;7.67;;;1.90;99.90;;;;;;5072598;28;20244;-63
2021/12/07 11:22:53;;;;;;;9.70;6.33;;;2.00;99.90;;;;;;5072692;28;20201;-62
2021/12/07 11:25:42;;;;;;;10.47;6.33;;;2.00;99.90;;;;;;5072428;28;20188;-63
2021/12/07 11:31:17;;;;;;;8.27;6.07;;;2.00;99.90;;;;;;5072637;28;20569;-63
2021/12/07 11:33:46;;;;;;;10.17;7.17;;;2.00;99.90;;;;;;5072299;28;20235;-64
2021/12/07 11:36:19;;;;;;;10.10;6.07;;;2.00;99.90;;;;;;5071338;28;20201;-64
2021/12/07 11:38:47;;;;;;;12.37;7.67;;;1.90;99.90;;;;;;5072657;28;20198;-63
2021/12/07 11:41:16;;;;;;;10.47;6.43;;;2.00;99.90;;;;;;5072411;28;20212;-64
2021/12/07 11:43:51;;;;;;;10.03;6.60;;;2.00;99.90;;;;;;5072327;28;20254;-64
2021/12/07 11:46:19;;;;;;;9.60;6.50;;;2.00;99.90;;;;;;5071385;28;20696;-64
2021/12/07 11:48:48;;;;;;;8.43;6.23;;;2.00;99.90;;;;;;5072060;28;20197;-63
2021/12/07 11:51:15;;;;;;;8.43;5.40;;;2.00;99.90;;;;;;5071692;28;20240;-64
2021/12/07 11:53:43;;;;;;;7.43;5.70;;;2.00;99.90;;;;;;5071046;28;20667;-63
2021/12/07 11:56:10;;;;;;;7.27;5.47;;;2.00;99.90;;;;;;5068332;28;20207;-63
2021/12/07 11:58:37;;;;;;;7.30;5.20;;;1.90;99.90;;;;;;5072352;28;20212;-64
2021/12/07 12:01:06;;;;;;;6.40;5.27;;;1.90;99.90;;;;;;5071513;28;20212;-63
2021/12/07 12:03:33;;;;;;;7.47;5.30;;;1.80;99.90;;;;;;5075886;28;20563;-63
2021/12/07 12:06:01;;;;;;;8.17;5.20;;;1.90;99.90;;;;;;5077288;28;20300;-63
2021/12/07 12:08:28;;;;;;;5.57;4.43;;;1.80;99.90;;;;;;5078124;28;20544;-65
2021/12/07 12:11:00;;;;;;;6.57;4.87;;;1.80;99.90;;;;;;5078249;28;20204;-63
2021/12/07 12:13:39;;;;;;;7.63;5.70;;;1.90;99.90;;;;;;5075205;28;20239;-63
2021/12/07 12:16:17;;;;;;;6.67;5.43;;;1.90;99.90;;;;;;5071845;28;20193;-63
2021/12/07 12:18:54;;;;;;;7.53;5.57;;;1.90;99.90;;;;;;5076133;28;20909;-63
2021/12/07 12:21:31;;;;;;;5.87;5.00;;;1.90;99.90;;;;;;5077043;28;20568;-64
2021/12/07 12:24:08;;;;;;;8.13;6.00;;;1.90;99.90;;;;;;5074525;28;20204;-63
2021/12/07 12:26:35;;;;;;;8.87;6.17;;;1.90;99.90;;;;;;5076450;28;20206;-64
2021/12/07 12:29:16;;;;;;;9.77;6.27;;;1.90;99.90;;;;;;5075072;28;20569;-63
2021/12/07 12:31:51;;;;;;;11.00;7.23;;;2.00;99.90;;;;;;5072153;28;20573;-63
2021/12/07 12:34:21;;;;;;;8.23;6.47;;;2.00;99.90;;;;;;5084820;28;20245;-66
2021/12/07 12:37:01;;;;;;;12.37;6.70;;;2.00;99.90;;;;;;5073411;28;20203;-62
2021/12/07 12:39:51;;;;;;;11.80;7.90;;;2.00;99.90;;;;;;5071343;28;20196;-64
2021/12/07 12:42:28;;;;;;;10.97;7.43;;;2.00;99.90;;;;;;5051770;28;20602;-62
2021/12/07 12:45:02;;;;;;;10.00;7.00;;;2.00;99.90;;;;;;5056014;28;20212;-64
2021/12/07 12:47:31;;;;;;;10.47;7.20;;;2.00;99.90;;;;;;5060969;28;20203;-63
2021/12/07 12:50:11;;;;;;;10.43;7.17;;;2.00;99.90;;;;;;5072184;28;20218;-65
2021/12/07 12:52:42;;;;;;;9.40;6.90;;;2.00;99.90;;;;;;5075538;28;20572;-65
2021/12/07 12:55:28;;;;;;;9.77;7.30;;;2.00;99.90;;;;;;5082391;28;20195;-63
2021/12/07 12:57:55;;;;;;;9.73;6.80;;;1.90;99.90;;;;;;5067550;28;20228;-62
2021/12/07 13:00:24;;;;;;;10.00;7.40;;;1.90;99.90;;;;;;5071632;28;20203;-63
2021/12/07 13:02:52;;;;;;;11.87;8.00;;;1.90;99.90;;;;;;5072754;28;20196;-62
2021/12/07 13:05:33;;;;;;;10.07;7.03;;;1.90;99.90;;;;;;5070308;28;20230;-63
2021/12/07 13:08:14;;;;;;;10.33;7.33;;;1.90;99.90;;;;;;5071181;28;20278;-63
2021/12/07 13:10:57;;;;;;;10.63;7.03;;;1.80;99.90;;;;;;5074524;28;20669;-64
2021/12/07 13:13:31;;;;;;;11.37;7.37;;;1.80;99.90;;;;;;5075012;28;20604;-65
2021/12/07 13:15:58;;;;;;;10.97;7.50;;;1.70;99.90;;;;;;5095431;28;20191;-62
2021/12/07 13:18:31;;;;;;;17.67;8.00;;;1.60;99.90;;;;;;5095635;28;20310;-62
2021/12/07 13:20:58;;;;;;;12.77;8.50;;;1.60;99.90;;;;;;5075229;28;20288;-63
2021/12/07 13:23:29;;;;;;;14.97;9.63;;;1.60;99.90;;;;;;5087302;28;20667;-63
2021/12/07 13:25:56;;;;;;;14.87;9.73;;;1.60;99.90;;;;;;5074500;28;20254;-62
2021/12/07 13:28:26;;;;;;;13.80;8.90;;;1.50;99.90;;;;;;5080685;28;20222;-64
2021/12/07 13:31:15;;;;;;;12.73;8.53;;;1.50;99.90;;;;;;5084792;28;20297;-63
2021/12/07 13:33:44;;;;;;;16.43;10.63;;;1.50;99.90;;;;;;5053041;28;20241;-63
2021/12/07 13:36:33;;;;;;;14.73;10.20;;;1.50;99.90;;;;;;5068396;28;20213;-63
2021/12/07 13:39:07;;;;;;;16.03;10.17;;;1.50;99.90;;;;;;5074974;28;20322;-63
2021/12/07 13:41:35;;;;;;;13.23;8.33;;;1.40;99.90;;;;;;5074635;28;20189;-62
2021/12/07 13:44:02;;;;;;;16.03;10.10;;;1.50;99.90;;;;;;5081608;28;20279;-63
2021/12/07 13:46:29;;;;;;;13.50;8.80;;;1.50;99.90;;;;;;5079505;28;20201;-64
2021/12/07 13:49:05;;;;;;;12.97;8.40;;;1.40;99.90;;;;;;5083947;28;20204;-64
2021/12/07 13:51:33;;;;;;;13.17;8.30;;;1.50;99.90;;;;;;5075290;28;20593;-64
2021/12/07 13:54:02;;;;;;;12.47;7.67;;;1.40;99.90;;;;;;5075127;28;20232;-62
2021/12/07 13:56:33;;;;;;;13.23;8.70;;;1.50;99.90;;;;;;5074906;28;20311;-64
2021/12/07 13:59:05;;;;;;;12.77;8.50;;;1.50;99.90;;;;;;5074594;28;20200;-65
2021/12/07 14:01:36;;;;;;;14.43;8.97;;;1.40;99.90;;;;;;5074841;28;20621;-62
2021/12/07 14:04:05;;;;;;;16.13;8.90;;;1.40;99.90;;;;;;5074496;28;20189;-62
2021/12/07 14:06:32;;;;;;;14.50;8.87;;;1.40;99.90;;;;;;5074172;28;20213;-66